Time;durP1;ratioP1;P1;durP2;ratioP2;P2;SDS_P1;SDS_P2;PMS_P1;PMS_P2;Temp;Humidity;BMP_temperature;BMP_pressure;BME280_temperature;BME280_humidity;BME280_pressure;Samples;Min_cycle;Max_cycle;Signal;HPM_P1;HPM_P2
2023/01/26 00:00:40;;;;;;;129.53;48.33;;;;;;;-2.08;100.00;102428.25;5023035;28;20104;-59
2023/01/26 00:03:05;;;;;;;128.43;47.20;;;;;;;-2.10;100.00;102419.66;5026347;28;20041;-59
2023/01/26 00:05:31;;;;;;;124.27;44.60;;;;;;;-2.08;100.00;102417.84;5026201;28;20046;-58
2023/01/26 00:07:56;;;;;;;123.87;44.27;;;;;;;-2.06;100.00;102416.06;5018570;28;20468;-58
2023/01/26 00:10:22;;;;;;;125.53;46.50;;;;;;;-2.08;100.00;102417.84;5028286;28;20045;-58
2023/01/26 00:12:47;;;;;;;120.13;43.57;;;;;;;-2.07;100.00;102414.34;5020218;28;20034;-59
2023/01/26 00:15:12;;;;;;;119.20;45.47;;;;;;;-2.07;100.00;102414.34;5026494;28;20033;-59
2023/01/26 00:17:38;;;;;;;125.53;45.63;;;;;;;-2.10;100.00;102406.66;5029255;28;20084;-59
2023/01/26 00:20:03;;;;;;;116.20;44.03;;;;;;;-2.07;100.00;102390.97;5023237;28;20128;-59
2023/01/26 00:22:28;;;;;;;113.27;43.23;;;;;;;-2.07;100.00;102403.97;5029528;28;20041;-58
2023/01/26 00:24:54;;;;;;;118.43;44.47;;;;;;;-2.06;100.00;102403.06;5030910;28;20087;-59
2023/01/26 00:27:19;;;;;;;117.23;44.03;;;;;;;-2.08;100.00;102397.06;5022166;28;20495;-59
2023/01/26 00:29:44;;;;;;;119.63;44.87;;;;;;;-2.05;100.00;102401.31;5026723;28;20041;-59
2023/01/26 00:32:10;;;;;;;116.70;44.13;;;;;;;-2.06;100.00;102395.25;5025282;28;20030;-58
2023/01/26 00:34:35;;;;;;;113.23;43.40;;;;;;;-2.03;100.00;102392.59;5027153;28;20036;-58
2023/01/26 00:37:01;;;;;;;118.73;44.37;;;;;;;-2.01;100.00;102392.56;5019866;28;20101;-58
2023/01/26 00:39:26;;;;;;;121.50;45.03;;;;;;;-1.99;100.00;102384.72;5024994;28;20028;-60
2023/01/26 00:42:08;;;;;;;115.83;44.40;;;;;;;-1.97;100.00;102388.13;5025606;28;20053;-60
2023/01/26 00:44:37;;;;;;;117.22;45.95;;;;;;;-2.01;100.00;102382.16;5027549;28;20035;-60
2023/01/26 00:47:04;;;;;;;121.90;44.97;;;;;;;-1.98;100.00;102373.44;5024033;28;20049;-57
2023/01/26 00:49:29;;;;;;;116.33;42.83;;;;;;;-1.97;100.00;102377.72;5031018;28;20084;-59
2023/01/26 00:51:54;;;;;;;115.57;43.37;;;;;;;-1.97;100.00;102368.16;5033555;28;20385;-59
2023/01/26 00:54:20;;;;;;;115.97;44.30;;;;;;;-1.95;100.00;102362.91;5017776;28;20108;-58
2023/01/26 00:56:45;;;;;;;109.93;42.00;;;;;;;-1.93;100.00;102361.16;5024574;28;20060;-59
2023/01/26 00:59:11;;;;;;;115.60;44.57;;;;;;;-1.94;100.00;102364.63;5032263;28;20570;-58
2023/01/26 01:01:36;;;;;;;112.33;42.70;;;;;;;-1.94;100.00;102352.50;5030023;28;20025;-58
2023/01/26 01:04:01;;;;;;;113.23;44.90;;;;;;;-1.96;100.00;102356.03;5028584;28;20080;-59
2023/01/26 01:06:27;;;;;;;113.17;42.63;;;;;;;-1.97;100.00;102356.94;5027717;28;20030;-59
2023/01/26 01:08:52;;;;;;;111.20;42.80;;;;;;;-1.99;100.00;102353.53;5032115;28;20029;-59
2023/01/26 01:11:17;;;;;;;105.93;42.00;;;;;;;-1.97;100.00;102352.56;5032025;28;20022;-58
2023/01/26 01:13:43;;;;;;;110.13;41.10;;;;;;;-1.95;100.00;102344.72;5023013;28;20022;-59
2023/01/26 01:16:11;;;;;;;112.63;43.90;;;;;;;-1.93;100.00;102346.38;5031351;28;20396;-59
2023/01/26 01:18:36;;;;;;;108.00;41.77;;;;;;;-1.91;100.00;102357.59;5027211;28;20482;-59
2023/01/26 01:21:07;;;;;;;100.20;39.90;;;;;;;-1.89;100.00;102354.94;5024825;28;20036;-58
2023/01/26 01:23:32;;;;;;;101.93;40.20;;;;;;;-1.87;100.00;102358.38;5030371;28;20025;-59
2023/01/26 01:25:58;;;;;;;96.93;40.33;;;;;;;-1.85;100.00;102355.72;5033628;28;20095;-59
2023/01/26 01:28:24;;;;;;;104.87;40.77;;;;;;;-1.85;100.00;102351.38;5020250;28;20038;-58
2023/01/26 01:30:49;;;;;;;103.00;40.23;;;;;;;-1.85;100.00;102342.72;5032767;28;20033;-58
2023/01/26 01:33:15;;;;;;;96.20;40.33;;;;;;;-1.81;100.00;102350.41;5025156;28;20113;-59
2023/01/26 01:35:40;;;;;;;102.00;40.57;;;;;;;-1.82;100.00;102337.44;5032747;28;20032;-58
2023/01/26 01:38:05;;;;;;;94.63;40.33;;;;;;;-1.93;100.00;102342.97;5025351;28;20425;-58
2023/01/26 01:40:31;;;;;;;95.10;39.40;;;;;;;-1.94;100.00;102351.63;5033050;28;20053;-59
2023/01/26 01:42:56;;;;;;;101.67;41.13;;;;;;;-1.89;100.00;102354.94;5029754;28;20465;-58
2023/01/26 01:45:24;;;;;;;97.03;38.93;;;;;;;-1.86;100.00;102349.69;5029951;28;20449;-59
2023/01/26 01:47:50;;;;;;;93.30;38.60;;;;;;;-1.86;100.00;102352.28;5017015;28;20060;-58
2023/01/26 01:50:18;;;;;;;97.13;41.13;;;;;;;-1.83;100.00;102346.97;5022705;28;20075;-59
2023/01/26 01:52:44;;;;;;;95.97;39.73;;;;;;;-1.88;100.00;102341.06;5018443;28;20026;-59
2023/01/26 01:55:12;;;;;;;92.23;38.90;;;;;;;-1.85;100.00;102353.97;5031244;28;20493;-59
2023/01/26 01:57:51;;;;;;;96.60;40.37;;;;;;;-1.82;100.00;102356.47;5025683;28;20653;-61
2023/01/26 02:00:19;;;;;;;92.83;39.27;;;;;;;-1.86;100.00;102341.00;5027308;28;20071;-58
2023/01/26 02:03:13;;;;;;;93.93;39.40;;;;;;;-1.80;100.00;102354.72;5027521;28;20029;-58
2023/01/26 02:05:41;;;;;;;96.03;39.63;;;;;;;-1.78;100.00;102347.72;5030482;28;21509;-58
2023/01/26 02:08:08;;;;;;;92.23;38.00;;;;;;;-1.75;100.00;102349.38;5023411;28;20025;-59
2023/01/26 02:10:35;;;;;;;94.57;39.07;;;;;;;-1.78;100.00;102341.66;5017329;28;20072;-59
2023/01/26 02:13:02;;;;;;;94.60;38.07;;;;;;;-1.77;100.00;102343.38;5027590;28;20061;-57
2023/01/26 02:15:29;;;;;;;95.97;38.90;;;;;;;-1.75;100.00;102336.38;5031117;28;20029;-59
2023/01/26 02:17:54;;;;;;;96.60;38.67;;;;;;;-1.73;100.00;102333.72;5030581;28;20467;-58
2023/01/26 02:20:45;;;;;;;93.57;39.30;;;;;;;-1.71;100.00;102327.59;5024673;28;20026;-60
2023/01/26 02:23:28;;;;;;;97.70;40.20;;;;;;;-1.71;100.00;102321.53;5027405;28;20480;-58
2023/01/26 02:25:53;;;;;;;94.60;38.45;;;;;;;-1.67;100.00;102329.19;5022611;28;20031;-58
2023/01/26 02:28:21;;;;;;;95.63;39.57;;;;;;;-1.68;100.00;102322.28;5031247;28;20112;-59
2023/01/26 02:30:48;;;;;;;102.03;40.90;;;;;;;-1.67;100.00;102317.94;5024941;28;20034;-58
2023/01/26 02:33:18;;;;;;;92.93;38.10;;;;;;;-1.65;100.00;102321.34;5025265;28;20040;-58
2023/01/26 02:35:43;;;;;;;85.67;36.67;;;;;;;-1.64;100.00;102323.03;5031171;28;20529;-58
2023/01/26 02:38:08;;;;;;;95.33;38.80;;;;;;;-1.64;100.00;102323.03;5030713;28;20112;-58
2023/01/26 02:40:43;;;;;;;88.90;36.37;;;;;;;-1.66;100.00;102315.31;5030208;28;20064;-59
2023/01/26 02:43:09;;;;;;;94.03;38.30;;;;;;;-1.65;100.00;102321.34;5028624;28;20034;-58
2023/01/26 02:45:37;;;;;;;93.80;37.93;;;;;;;-1.61;100.00;102317.75;5030890;28;20068;-58
2023/01/26 02:48:05;;;;;;;91.23;37.43;;;;;;;-1.64;100.00;102317.84;5014022;28;20049;-59
2023/01/26 02:50:31;;;;;;;91.20;36.70;;;;;;;-1.62;100.00;102313.47;5024375;28;20033;-58
2023/01/26 02:52:57;;;;;;;89.53;38.07;;;;;;;-1.62;100.00;102321.25;5020255;28;20053;-59
2023/01/26 02:55:26;;;;;;;87.07;36.27;;;;;;;-1.62;100.00;102313.47;5030726;28;20057;-59
2023/01/26 02:58:02;;;;;;;90.07;36.97;;;;;;;-1.61;100.00;102312.56;5017904;28;20519;-59
2023/01/26 03:00:35;;;;;;;91.53;37.90;;;;;;;-1.68;100.00;102300.63;5026894;28;20689;-58
2023/01/26 03:03:06;;;;;;;86.13;36.93;;;;;;;-1.62;100.00;102310.84;5029908;28;20772;-58
2023/01/26 03:05:32;;;;;;;83.10;35.30;;;;;;;-1.65;100.00;102300.53;5020630;28;20627;-59
2023/01/26 03:07:57;;;;;;;89.13;36.43;;;;;;;-1.58;100.00;102309.00;5023564;28;20033;-59
2023/01/26 03:10:24;;;;;;;79.53;34.87;;;;;;;-1.58;100.00;102312.44;5026179;28;20038;-58
2023/01/26 03:12:49;;;;;;;83.03;35.80;;;;;;;-1.59;100.00;102308.16;5019018;28;20037;-59
2023/01/26 03:29:00;;;;;;;81.90;34.60;;;;;;;-1.59;100.00;102305.53;5025488;28;20064;-58
2023/01/26 03:31:26;;;;;;;78.20;34.40;;;;;;;-1.56;100.00;102310.69;5024720;28;20034;-59
2023/01/26 03:33:51;;;;;;;79.07;34.07;;;;;;;-1.54;100.00;102311.47;5028046;28;20044;-59
2023/01/26 03:36:16;;;;;;;83.07;35.20;;;;;;;-1.53;100.00;102305.38;5028364;28;20021;-59
2023/01/26 03:38:42;;;;;;;84.60;35.77;;;;;;;-1.52;100.00;102307.06;5015187;28;20524;-58
2023/01/26 03:57:30;;;;;;;78.53;34.47;;;;;;;-1.41;100.00;102293.75;5025019;28;20179;-59
2023/01/26 03:59:56;;;;;;;78.97;33.53;;;;;;;-1.40;100.00;102298.03;5028735;28;20112;-59
2023/01/26 04:10:33;;;;;;;69.67;29.60;;;;;;;-1.35;100.00;102284.88;5024553;28;20053;-58
2023/01/26 04:21:27;;;;;;;70.43;29.67;;;;;;;-1.34;100.00;102299.59;5023537;28;20070;-59
2023/01/26 04:23:55;;;;;;;69.20;29.27;;;;;;;-1.33;100.00;102296.13;5032794;28;20045;-58
2023/01/26 04:26:20;;;;;;;69.57;30.07;;;;;;;-1.33;100.00;102290.91;5027134;28;20028;-59
2023/01/26 04:28:46;;;;;;;71.40;30.20;;;;;;;-1.30;100.00;102284.72;5023749;28;20030;-59
2023/01/26 04:31:11;;;;;;;65.90;28.33;;;;;;;-1.30;100.00;102285.59;5033569;28;20515;-59
2023/01/26 04:33:36;;;;;;;65.00;28.17;;;;;;;-1.31;100.00;102286.50;5024412;28;20029;-59
2023/01/26 04:36:06;;;;;;;66.10;27.27;;;;;;;-1.28;100.00;102288.16;5020980;28;20034;-58
2023/01/26 04:38:31;;;;;;;59.97;26.13;;;;;;;-1.28;100.00;102283.78;5023810;28;20038;-59
2023/01/26 04:40:57;;;;;;;61.23;27.40;;;;;;;-1.27;100.00;102292.47;5030970;28;20119;-58
2023/01/26 04:43:23;;;;;;;61.40;26.27;;;;;;;-1.25;100.00;102291.50;5024761;28;20057;-59
2023/01/26 04:45:59;;;;;;;61.33;26.43;;;;;;;-1.25;100.00;102290.66;5024899;28;20774;-59
2023/01/26 04:48:25;;;;;;;63.57;26.90;;;;;;;-1.23;100.00;102291.47;5028307;28;20069;-58
2023/01/26 04:50:59;;;;;;;61.93;26.70;;;;;;;-1.24;100.00;102285.41;5032011;28;20044;-59
2023/01/26 04:53:25;;;;;;;58.53;25.83;;;;;;;-1.21;100.00;102289.66;5028156;28;20530;-58
2023/01/26 04:55:51;;;;;;;56.37;25.33;;;;;;;-1.20;100.00;102290.53;5022062;28;20052;-59
2023/01/26 04:58:17;;;;;;;58.57;25.40;;;;;;;-1.19;100.00;102287.03;5029408;28;20385;-59
2023/01/26 05:00:56;;;;;;;57.40;25.27;;;;;;;-1.19;100.00;102287.03;5031318;28;20384;-60
2023/01/26 05:03:22;;;;;;;57.13;24.27;;;;;;;-1.18;100.00;102291.31;5021774;28;20037;-58
2023/01/26 05:05:49;;;;;;;52.70;24.70;;;;;;;-1.20;100.00;102286.16;5031379;28;20771;-59
2023/01/26 05:08:15;;;;;;;53.90;23.87;;;;;;;-1.18;100.00;102288.72;5033085;28;20113;-59
2023/01/26 05:10:41;;;;;;;52.97;23.47;;;;;;;-1.20;100.00;102288.75;5033771;28;20108;-58
2023/01/26 05:13:07;;;;;;;57.83;24.03;;;;;;;-1.20;100.00;102287.91;5032403;28;20025;-59
2023/01/26 05:15:32;;;;;;;55.33;24.63;;;;;;;-1.20;100.00;102287.91;5030887;28;20087;-58
2023/01/26 05:17:58;;;;;;;56.73;24.40;;;;;;;-1.18;100.00;102283.50;5023249;28;20084;-58
2023/01/26 05:20:24;;;;;;;57.77;24.63;;;;;;;-1.17;100.00;102290.41;5032242;28;20028;-58
2023/01/26 05:22:49;;;;;;;57.03;23.87;;;;;;;-1.18;100.00;102283.50;5032997;28;20033;-58
2023/01/26 05:25:15;;;;;;;55.23;23.40;;;;;;;-1.19;100.00;102281.81;5026238;28;20057;-59
2023/01/26 05:27:40;;;;;;;55.43;24.10;;;;;;;-1.17;100.00;102280.00;5030886;28;20087;-59
2023/01/26 05:30:06;;;;;;;55.90;23.87;;;;;;;-1.14;100.00;102287.72;5031467;28;20035;-59
2023/01/26 05:32:31;;;;;;;55.63;24.20;;;;;;;-1.18;100.00;102288.72;5025163;28;20697;-58
2023/01/26 05:34:56;;;;;;;52.77;22.70;;;;;;;-1.16;100.00;102292.09;5023815;28;20526;-59
2023/01/26 05:37:26;;;;;;;54.30;23.60;;;;;;;-1.14;100.00;102296.38;5031025;28;20030;-60
2023/01/26 05:39:52;;;;;;;61.17;24.20;;;;;;;-1.17;100.00;102293.00;5018234;28;20030;-59
2023/01/26 05:42:17;;;;;;;54.00;23.93;;;;;;;-1.12;100.00;102288.53;5016085;28;20103;-59
2023/01/26 05:44:42;;;;;;;55.07;22.53;;;;;;;-1.10;100.00;102291.91;5026526;28;20529;-58
2023/01/26 05:47:08;;;;;;;53.17;22.73;;;;;;;-1.12;100.00;102298.94;5031645;28;20493;-59
2023/01/26 05:49:33;;;;;;;53.70;22.00;;;;;;;-1.10;100.00;102300.59;5028356;28;20043;-58
2023/01/26 05:51:59;;;;;;;52.40;22.30;;;;;;;-1.08;100.00;102292.72;5031980;28;20400;-59
2023/01/26 05:54:24;;;;;;;52.23;22.57;;;;;;;-1.08;100.00;102295.34;5027368;28;20108;-60
2023/01/26 05:56:50;;;;;;;51.63;22.60;;;;;;;-1.08;100.00;102290.97;5027799;28;20112;-58
2023/01/26 05:59:15;;;;;;;52.13;22.37;;;;;;;-1.07;100.00;102294.44;5023101;28;20029;-59
2023/01/26 06:01:41;;;;;;;49.17;21.53;;;;;;;-1.07;100.00;102291.81;5022430;28;20061;-58
2023/01/26 06:04:06;;;;;;;47.83;20.60;;;;;;;-1.07;100.00;102294.44;5023084;28;20033;-59
2023/01/26 06:06:32;;;;;;;50.27;21.83;;;;;;;-1.09;100.00;102293.59;5022067;28;20113;-59
2023/01/26 06:08:57;;;;;;;49.80;21.47;;;;;;;-1.05;100.00;102305.63;5019395;28;20026;-58
2023/01/26 06:11:23;;;;;;;52.37;21.17;;;;;;;-1.04;100.00;102304.72;5019198;28;20033;-59
2023/01/26 06:13:48;;;;;;;51.73;21.77;;;;;;;-1.05;100.00;102308.25;5019478;28;20060;-59
2023/01/26 06:16:14;;;;;;;52.93;21.07;;;;;;;-1.06;100.00;102314.34;5027363;28;20053;-59
2023/01/26 06:18:39;;;;;;;51.33;21.50;;;;;;;-1.04;100.00;102312.53;5022152;28;20162;-59
2023/01/26 06:21:04;;;;;;;51.63;21.67;;;;;;;-1.03;100.00;102313.41;5026291;28;20041;-59
2023/01/26 06:23:29;;;;;;;50.27;21.53;;;;;;;-1.03;100.00;102306.44;5023405;28;20056;-58
2023/01/26 06:25:59;;;;;;;53.10;21.40;;;;;;;-1.02;100.00;102310.75;5021542;28;20038;-58
2023/01/26 06:28:24;;;;;;;49.13;20.93;;;;;;;-1.02;100.00;102305.56;5022651;28;20433;-58
2023/01/26 06:30:50;;;;;;;50.87;21.13;;;;;;;-1.00;100.00;102308.09;5022219;28;20037;-59
2023/01/26 06:33:15;;;;;;;52.80;21.40;;;;;;;-1.00;100.00;102308.09;5023691;28;20025;-58
2023/01/26 06:35:40;;;;;;;47.63;20.53;;;;;;;-1.00;100.00;102311.56;5021598;28;20470;-59
2023/01/26 06:38:06;;;;;;;48.67;20.23;;;;;;;-1.02;100.00;102315.97;5021860;28;20081;-59
2023/01/26 06:40:31;;;;;;;48.10;20.20;;;;;;;-1.00;100.00;102314.16;5021816;28;20497;-58
2023/01/26 06:42:56;;;;;;;49.13;19.87;;;;;;;-1.02;100.00;102321.19;5020181;28;20044;-58
2023/01/26 06:45:22;;;;;;;50.03;20.40;;;;;;;-0.99;100.00;102315.03;5023755;28;20040;-59
2023/01/26 06:47:49;;;;;;;47.90;20.47;;;;;;;-0.99;100.00;102322.84;5023943;28;20120;-58
2023/01/26 06:50:18;;;;;;;48.70;19.47;;;;;;;-1.01;100.00;102322.88;5018494;28;20380;-58
2023/01/26 06:52:46;;;;;;;49.47;20.27;;;;;;;-1.03;100.00;102316.84;5020497;28;20031;-60
2023/01/26 06:55:22;;;;;;;47.73;19.77;;;;;;;-1.01;100.00;102322.88;5025694;28;20483;-58
2023/01/26 06:57:48;;;;;;;48.60;20.17;;;;;;;-1.00;100.00;102329.78;5024512;28;20076;-58
2023/01/26 07:00:14;;;;;;;48.30;20.07;;;;;;;-1.01;100.00;102322.88;5022269;28;20033;-60
2023/01/26 07:02:39;;;;;;;48.63;20.10;;;;;;;-1.01;100.00;102322.88;5020116;28;20034;-59
2023/01/26 07:05:05;;;;;;;49.20;19.97;;;;;;;-0.97;100.00;102324.50;5024546;28;20057;-60
2023/01/26 07:07:30;;;;;;;47.63;19.43;;;;;;;-0.97;100.00;102321.88;5020596;28;20029;-58
2023/01/26 07:09:56;;;;;;;48.60;19.50;;;;;;;-0.97;100.00;102324.50;5019478;28;20799;-59
2023/01/26 07:12:21;;;;;;;47.57;19.20;;;;;;;-0.96;100.00;102326.19;5022832;28;20068;-59
2023/01/26 07:14:46;;;;;;;47.43;19.67;;;;;;;-0.92;100.00;102336.50;5020839;28;20669;-58
2023/01/26 07:17:12;;;;;;;48.23;19.70;;;;;;;-0.95;100.00;102333.09;5023662;28;20022;-58
2023/01/26 07:19:37;;;;;;;46.27;18.80;;;;;;;-0.93;100.00;102340.00;5023533;28;20030;-58
2023/01/26 07:22:03;;;;;;;49.30;19.80;;;;;;;-0.92;100.00;102336.50;5025817;28;20112;-58
2023/01/26 07:24:28;;;;;;;47.77;18.97;;;;;;;-0.92;100.00;102344.31;5020294;28;20738;-59
2023/01/26 07:26:54;;;;;;;51.00;20.17;;;;;;;-0.96;100.00;102339.22;5022956;28;20925;-59
2023/01/26 07:29:20;;;;;;;50.30;19.90;;;;;;;-0.96;100.00;102341.81;5018682;28;20047;-58
2023/01/26 07:31:46;;;;;;;53.03;20.23;;;;;;;-0.97;100.00;102323.63;5024744;28;20037;-60
2023/01/26 07:34:12;;;;;;;53.53;20.30;;;;;;;-0.95;100.00;102332.22;5024767;28;20034;-59
2023/01/26 07:36:37;;;;;;;51.23;20.60;;;;;;;-0.92;100.00;102336.50;5026686;28;20445;-61
2023/01/26 07:39:03;;;;;;;54.93;21.00;;;;;;;-0.93;100.00;102334.78;5029485;28;20447;-59
2023/01/26 07:41:28;;;;;;;53.13;20.80;;;;;;;-0.95;100.00;102338.31;5026718;28;20041;-58
2023/01/26 07:43:53;;;;;;;53.57;21.33;;;;;;;-0.93;100.00;102332.19;5030168;28;20087;-58
2023/01/26 07:46:19;;;;;;;51.70;21.20;;;;;;;-0.91;100.00;102338.19;5026147;28;20369;-58
2023/01/26 07:48:44;;;;;;;50.87;20.33;;;;;;;-0.91;100.00;102343.41;5026093;28;20021;-60
2023/01/26 07:51:09;;;;;;;51.63;20.57;;;;;;;-0.90;100.00;102334.72;5031344;28;20056;-59
2023/01/26 07:53:38;;;;;;;54.20;20.47;;;;;;;-0.90;100.00;102343.34;5022933;28;20041;-59
2023/01/26 07:56:14;;;;;;;54.93;21.30;;;;;;;-0.86;100.00;102347.56;5035324;28;20047;-58
2023/01/26 07:58:40;;;;;;;55.70;22.17;;;;;;;-0.89;100.00;102349.44;5032877;28;20049;-59
2023/01/26 08:01:11;;;;;;;55.63;20.60;;;;;;;-0.90;100.00;102353.78;5029075;28;20115;-58
2023/01/26 08:03:37;;;;;;;55.13;22.17;;;;;;;-0.88;100.00;102357.19;5034617;28;20041;-58
2023/01/26 08:06:03;;;;;;;56.47;21.40;;;;;;;-0.87;100.00;102358.03;5028082;28;20030;-58
2023/01/26 08:08:28;;;;;;;58.10;22.40;;;;;;;-0.87;100.00;102358.03;5034060;28;20036;-58
2023/01/26 08:10:59;;;;;;;57.97;21.87;;;;;;;-0.85;100.00;102362.31;5031356;28;20112;-58
2023/01/26 08:13:28;;;;;;;58.60;22.60;;;;;;;-0.85;100.00;102358.84;5024870;28;20017;-57
2023/01/26 08:15:53;;;;;;;54.73;20.83;;;;;;;-0.83;100.00;102362.25;5034242;28;20029;-58
2023/01/26 08:18:19;;;;;;;62.23;22.43;;;;;;;-0.84;100.00;102363.16;5033007;28;20461;-58
2023/01/26 08:20:54;;;;;;;54.03;21.00;;;;;;;-0.81;100.00;102365.66;5028631;28;20091;-58
2023/01/26 08:23:19;;;;;;;55.77;21.40;;;;;;;-0.83;100.00;102370.91;5028219;28;20101;-59
2023/01/26 08:25:45;;;;;;;56.17;21.40;;;;;;;-0.83;100.00;102367.47;5023661;28;20112;-57
2023/01/26 08:28:11;;;;;;;59.67;21.23;;;;;;;-0.84;100.00;102365.78;5027353;28;20045;-57
2023/01/26 08:30:37;;;;;;;61.90;22.20;;;;;;;-0.84;100.00;102368.38;5022181;28;20044;-56
2023/01/26 08:33:03;;;;;;;56.63;22.13;;;;;;;-0.84;100.00;102360.56;5024306;28;20461;-57
2023/01/26 08:35:30;;;;;;;58.80;22.70;;;;;;;-0.81;100.00;102376.06;5030863;28;20787;-58
2023/01/26 08:37:56;;;;;;;57.40;22.07;;;;;;;-0.82;100.00;102372.63;5032147;28;20033;-59
2023/01/26 08:40:23;;;;;;;59.83;21.47;;;;;;;-0.80;100.00;102380.38;5032871;28;20080;-58
2023/01/26 08:42:49;;;;;;;55.30;21.53;;;;;;;-0.83;100.00;102372.69;5032534;28;20026;-58
2023/01/26 08:45:14;;;;;;;59.77;22.33;;;;;;;-0.82;100.00;102375.25;5031593;28;20358;-59
2023/01/26 08:47:39;;;;;;;57.47;21.90;;;;;;;-0.78;100.00;102373.38;5031386;28;20069;-59
2023/01/26 08:50:05;;;;;;;62.20;22.67;;;;;;;-0.80;100.00;102379.53;5032400;28;20697;-58
2023/01/26 08:52:30;;;;;;;61.47;22.67;;;;;;;-0.78;100.00;102386.41;5030120;28;20045;-58
2023/01/26 08:54:55;;;;;;;56.93;21.87;;;;;;;-0.77;100.00;102382.91;5032763;28;20033;-58
2023/01/26 08:57:21;;;;;;;54.50;20.67;;;;;;;-0.74;100.00;102382.78;5027277;28;20469;-62
2023/01/26 08:59:46;;;;;;;56.70;22.30;;;;;;;-0.72;100.00;102381.00;5021197;28;20041;-62
2023/01/26 09:02:11;;;;;;;57.73;22.43;;;;;;;-0.71;100.00;102380.09;5023116;28;20028;-62
2023/01/26 09:04:37;;;;;;;62.17;23.33;;;;;;;-0.69;100.00;102383.50;5029814;28;20480;-62
2023/01/26 09:07:02;;;;;;;65.57;23.70;;;;;;;-0.66;100.00;102379.09;5028222;28;20060;-61
2023/01/26 09:09:27;;;;;;;63.80;23.03;;;;;;;-0.65;100.00;102381.63;5030761;28;20060;-62
2023/01/26 09:11:56;;;;;;;61.43;23.10;;;;;;;-0.63;100.00;102384.19;5030134;28;20049;-62
2023/01/26 09:14:22;;;;;;;59.70;22.77;;;;;;;-0.61;100.00;102383.25;5032452;28;20029;-62
2023/01/26 09:16:48;;;;;;;62.07;22.80;;;;;;;-0.59;100.00;102375.38;5032424;28;20040;-62
2023/01/26 09:19:13;;;;;;;59.93;22.67;;;;;;;-0.59;100.00;102380.59;5028717;28;20030;-62
2023/01/26 09:21:38;;;;;;;59.00;22.23;;;;;;;-0.57;100.00;102384.00;5029285;28;20033;-63
2023/01/26 09:24:04;;;;;;;66.10;22.83;;;;;;;-0.56;100.00;102385.69;5020511;28;20030;-63
2023/01/26 09:26:30;;;;;;;71.57;22.83;;;;;;;-0.59;100.00;102388.41;5030632;28;20416;-61
2023/01/26 09:28:55;;;;;;;66.00;23.10;;;;;;;-0.54;100.00;102386.53;5022844;28;20465;-59
2023/01/26 09:31:20;;;;;;;68.30;22.00;;;;;;;-0.55;100.00;102388.25;5031821;28;20045;-59
2023/01/26 09:33:49;;;;;;;63.43;22.33;;;;;;;-0.51;100.00;102388.16;5030065;28;20560;-59
2023/01/26 09:36:15;;;;;;;60.30;22.13;;;;;;;-0.45;100.00;102391.41;5022829;28;20033;-59
2023/01/26 09:38:40;;;;;;;74.87;22.73;;;;;;;-0.43;100.00;102392.19;5031691;28;20044;-58
2023/01/26 09:41:19;;;;;;;71.50;22.87;;;;;;;-0.45;100.00;102387.97;5029478;28;20477;-59
2023/01/26 09:43:56;;;;;;;70.93;22.97;;;;;;;-0.46;100.00;102396.66;5023271;28;20044;-59
2023/01/26 09:46:43;;;;;;;71.97;24.50;;;;;;;-0.47;100.00;102398.44;5021712;28;20149;-59
2023/01/26 09:49:15;;;;;;;61.60;23.20;;;;;;;-0.44;100.00;102400.09;5023240;28;20489;-58
2023/01/26 09:51:50;;;;;;;68.53;24.30;;;;;;;-0.45;100.00;102391.41;5023761;28;20099;-58
2023/01/26 09:54:37;;;;;;;76.43;25.57;;;;;;;-0.46;100.00;102397.53;5031906;28;20574;-59
2023/01/26 09:57:16;;;;;;;69.70;24.07;;;;;;;-0.44;100.00;102400.94;5023714;28;20105;-59
2023/01/26 09:59:55;;;;;;;63.17;23.40;;;;;;;-0.41;100.00;102395.63;5030412;28;20481;-59
2023/01/26 10:02:47;;;;;;;71.57;23.83;;;;;;;-0.38;100.00;102391.19;5025425;28;20512;-59
2023/01/26 10:05:38;;;;;;;64.37;24.60;;;;;;;-0.34;100.00;102390.22;5009693;28;20477;-59
2023/01/26 10:08:10;;;;;;;78.77;25.97;;;;;;;-0.39;100.00;102390.38;5023296;28;20108;-59
2023/01/26 10:10:42;;;;;;;72.20;24.03;;;;;;;-0.36;100.00;102390.25;5019836;28;20432;-58
2023/01/26 10:13:12;;;;;;;77.00;24.47;;;;;;;-0.31;100.00;102387.47;5020669;28;20021;-59
2023/01/26 10:15:42;;;;;;;69.00;23.07;;;;;;;-0.31;100.00;102384.88;5031453;28;20025;-59
2023/01/26 10:18:16;;;;;;;71.83;23.60;;;;;;;-0.30;100.00;102387.44;5028858;28;20079;-58
2023/01/26 10:20:46;;;;;;;71.30;23.80;;;;;;;-0.26;100.00;102384.75;5032709;28;20037;-60
2023/01/26 10:23:31;;;;;;;77.67;25.60;;;;;;;-0.25;100.00;102389.88;5032263;28;20037;-59
2023/01/26 10:26:10;;;;;;;82.97;26.03;;;;;;;-0.28;100.00;102379.56;5022110;28;20429;-59
2023/01/26 10:28:35;;;;;;;79.03;25.53;;;;;;;-0.21;100.00;102381.06;5029054;28;20037;-58
2023/01/26 10:31:04;;;;;;;76.03;23.90;;;;;;;-0.18;100.00;102391.41;5030398;28;20481;-58
2023/01/26 10:33:34;;;;;;;77.43;24.50;;;;;;;-0.18;100.00;102386.19;5022630;28;20080;-59
2023/01/26 10:36:01;;;;;;;89.50;26.10;;;;;;;-0.07;100.00;102390.16;5030790;28;20112;-59
2023/01/26 10:38:27;;;;;;;80.17;25.37;;;;;;;-0.03;100.00;102389.16;5020952;28;20034;-59
2023/01/26 10:40:52;;;;;;;89.03;24.30;;;;;;;0.07;100.00;102394.91;5028298;28;20044;-59
2023/01/26 10:43:18;;;;;;;82.03;25.03;;;;;;;0.05;100.00;102407.97;5030117;28;20045;-58
2023/01/26 10:45:46;;;;;;;75.40;24.97;;;;;;;0.07;100.00;102394.91;5029446;28;20039;-59
2023/01/26 10:48:20;;;;;;;79.20;24.20;;;;;;;0.12;100.00;102386.00;5023806;28;20112;-58
2023/01/26 10:50:46;;;;;;;94.93;26.47;;;;;;;0.10;100.00;102392.19;5026371;28;20441;-58
2023/01/26 10:53:23;;;;;;;86.03;27.00;;;;;;;0.10;100.00;102390.41;5021147;28;20029;-58
2023/01/26 10:56:01;;;;;;;92.60;26.10;;;;;;;0.23;100.00;102395.19;5025240;28;20037;-59
2023/01/26 10:58:45;;;;;;;103.37;27.73;;;;;;;0.26;100.00;102392.47;5025857;28;20489;-59
2023/01/26 11:01:13;;;;;;;105.50;28.20;;;;;;;0.32;100.00;102392.25;5021869;28;20037;-60
2023/01/26 11:03:39;;;;;;;104.77;27.17;;;;;;;0.33;100.00;102391.34;5028611;28;20125;-58
2023/01/26 11:06:12;;;;;;;99.63;27.77;;;;;;;0.39;100.00;102385.91;5026331;28;20029;-58
2023/01/26 11:08:38;;;;;;;106.20;27.50;;;;;;;0.48;100.00;102384.72;5024949;28;20029;-58
2023/01/26 11:11:09;;;;;;;100.93;26.00;;;;;;;0.57;100.00;102388.75;5031567;28;20075;-59
2023/01/26 11:13:34;;;;;;;108.73;27.67;;;;;;;0.60;100.00;102383.38;5023898;28;20030;-58
2023/01/26 11:16:13;;;;;;;114.57;28.97;;;;;;;0.64;100.00;102377.16;5028992;28;20032;-58
2023/01/26 11:18:53;;;;;;;116.17;27.87;;;;;;;0.75;100.00;102381.13;5029210;28;20025;-59
2023/01/26 11:21:35;;;;;;;125.60;29.67;;;;;;;0.81;100.00;102380.88;5027879;28;20063;-59
2023/01/26 11:24:25;;;;;;;141.60;31.50;;;;;;;0.91;100.00;102381.38;5024330;28;20029;-59
2023/01/26 11:27:21;;;;;;;143.73;31.30;;;;;;;1.01;100.00;102392.31;5028564;28;20090;-59
2023/01/26 11:30:05;;;;;;;155.30;31.90;;;;;;;1.06;100.00;102395.59;5021168;28;20030;-58
2023/01/26 11:32:49;;;;;;;;;;;;;;;1.17;100.00;102387.31;5018331;28;20029;-59
2023/01/26 11:35:32;;;;;;;110.03;28.57;;;;;;;1.30;100.00;102390.31;5024965;28;19923;-60
2023/01/26 11:38:37;;;;;;;143.73;31.50;;;;;;;1.40;100.00;102390.78;5027928;28;20487;-58
2023/01/26 11:41:39;;;;;;;125.40;29.27;;;;;;;1.48;100.00;102384.31;5023230;28;20025;-58
2023/01/26 11:44:38;;;;;;;127.10;29.80;;;;;;;1.58;100.00;102376.09;5024518;28;20117;-58
2023/01/26 11:47:28;;;;;;;116.53;26.40;;;;;;;1.69;100.00;102373.03;5022016;28;20489;-59
2023/01/26 11:50:23;;;;;;;96.77;24.87;;;;;;;1.76;100.00;102373.63;5029457;28;20049;-58
2023/01/26 11:53:14;;;;;;;99.17;24.70;;;;;;;1.88;100.00;102371.31;5027107;28;20406;-60
2023/01/26 11:55:58;;;;;;;94.53;25.17;;;;;;;1.95;100.00;102369.28;5029792;28;20473;-58